Ko Lanta, Thailand

9:50 AM ICT on February 06, 2016 (GMT +0700)
Krabi | | Change Station
CLOSE
Current Station
Airport
Location: Krabi,
Elevation: 82 ft
Nearby Weather Stations

Elev 82 ft 8.10 °N, 98.99 °E | Updated 50 minutes ago

Mostly Cloudy
Mostly Cloudy
81 °F
Feels Like 86 °F
N
5
Wind Variable Wind from NE

Today
High -- | Low -- °F
--% Chance of Precip.
Yesterday
High -- | Low -- °F
Precip. -- in
Pressure 29.89 in
Visibility 4.3 miles
Clouds Few 2000 ft
Mostly Cloudy 30000 ft
Heat Index 86 °F
Dew Point 75 °F
Humidity 84%
Rainfall 0.00 in
Snow Depth Not available.
6:42 AM 6:32 PM
Waning Crescent, 8% visible
METAR VTSG 060200Z 04004KT 350V100 7000 FEW020 BKN300 27/24 Q1012 A2988
Pressure 29.89 in
Visibility 4.3 miles
Clouds Few 2000 ft
Mostly Cloudy 30000 ft
Heat Index 86 °F
Dew Point 75 °F
Humidity 84%
Rainfall 0.00 in
Snow Depth Not available.
6:42 AM 6:32 PM
Waning Crescent, 8% visible
METAR VTSG 060200Z 04004KT 350V100 7000 FEW020 BKN300 27/24 Q1012 A2988

10-Day Weather Forecast

No radar image for this location.
×

Almanac

Astronomy

Feb. 06, 2016 Rise Set
Actual Time
Civil Twilight
Nautical Twilight
Astronomical Twilight
Moon
Length of Visible Light
Length of Day
Tomorrow will be .
, % of the Moon is Illuminated

Today's Extremes

Country Highs Country Lows

Community

WunderPhotos

Upload Photos

1,890,913 photos uploaded!

WunderBlog® & News

Nearby

Air Quality

  Air Quality AQ Index Pollutant
Not available.

Snow Depth

Station Depth Elevation

Earthquake Activity

City Distance Mag. Time & Date
Minimum magnitude displayed is 2.5.

Coastal Water Temperatures

Place Temperature

Stations

Nearby Weather Stations

Station Location Temp. Windchill Dew Point Humidity Wind Precip. Elev Updated Type